Time;durP1;ratioP1;P1;durP2;ratioP2;P2;SDS_P1;SDS_P2;PMS_P1;PMS_P2;Temp;Humidity;BMP_temperature;BMP_pressure;BME280_temperature;BME280_humidity;BME280_pressure;Samples;Min_cycle;Max_cycle;Signal;HPM_P1;HPM_P2
2021/12/12 00:01:37;;;;;;;70.43;27.88;;;;;;;;;;4988534;28;20332;-65
2021/12/12 00:04:14;;;;;;;69.68;27.45;;;;;;;;;;4991222;28;20033;-65
2021/12/12 00:06:50;;;;;;;67.32;27.20;;;;;;;;;;4989056;28;20436;-66
2021/12/12 00:09:20;;;;;;;70.85;25.17;;;;;;;;;;4989735;28;20414;-66
2021/12/12 00:11:47;;;;;;;70.72;26.13;;;;;;;;;;4971386;28;20029;-66
2021/12/12 00:14:21;;;;;;;75.68;27.38;;;;;;;;;;4987770;28;20367;-65
2021/12/12 00:16:46;;;;;;;64.60;24.13;;;;;;;;;;4989341;28;20339;-65
2021/12/12 00:19:12;;;;;;;63.65;25.35;;;;;;;;;;4989009;28;20056;-65
2021/12/12 00:21:41;;;;;;;67.55;27.58;;;;;;;;;;4990861;28;20328;-65
2021/12/12 00:24:08;;;;;;;73.18;24.40;;;;;;;;;;4989122;28;20147;-66
2021/12/12 00:26:34;;;;;;;67.72;26.58;;;;;;;;;;4988548;28;20347;-65
2021/12/12 00:28:59;;;;;;;61.50;25.80;;;;;;;;;;4989613;28;20029;-65
2021/12/12 00:31:25;;;;;;;55.35;24.88;;;;;;;;;;4988596;28;20512;-65
2021/12/12 00:33:53;;;;;;;58.28;24.27;;;;;;;;;;4988748;28;20367;-65
2021/12/12 00:36:19;;;;;;;71.18;25.67;;;;;;;;;;4970959;28;20339;-65
2021/12/12 00:38:51;;;;;;;57.70;25.08;;;;;;;;;;4988751;28;20375;-65
2021/12/12 00:41:26;;;;;;;56.00;22.67;;;;;;;;;;4970368;28;20048;-66
2021/12/12 00:43:52;;;;;;;57.60;23.80;;;;;;;;;;4988569;28;20428;-66
2021/12/12 00:46:19;;;;;;;77.85;27.23;;;;;;;;;;4989260;28;20467;-65
2021/12/12 00:48:45;;;;;;;68.30;26.02;;;;;;;;;;4988236;28;20452;-65
2021/12/12 00:51:13;;;;;;;66.43;26.33;;;;;;;;;;4990032;28;20459;-65
2021/12/12 00:53:40;;;;;;;55.50;24.37;;;;;;;;;;4988384;28;20384;-65
2021/12/12 00:56:07;;;;;;;63.30;25.50;;;;;;;;;;4986686;28;20590;-73
2021/12/12 00:58:32;;;;;;;64.30;25.83;;;;;;;;;;4988498;28;20344;-67
2021/12/12 01:01:20;;;;;;;63.05;25.73;;;;;;;;;;4990573;28;20340;-66
2021/12/12 01:03:52;;;;;;;65.03;23.08;;;;;;;;;;5000948;28;20532;-66
2021/12/12 01:06:20;;;;;;;58.50;24.02;;;;;;;;;;5008436;28;20324;-66
2021/12/12 01:08:47;;;;;;;58.80;24.85;;;;;;;;;;5008161;28;20478;-65
2021/12/12 01:11:28;;;;;;;58.92;23.10;;;;;;;;;;5008061;28;20402;-65
2021/12/12 01:13:54;;;;;;;66.35;24.02;;;;;;;;;;5008244;28;20470;-65
2021/12/12 01:16:26;;;;;;;58.97;22.73;;;;;;;;;;4990134;28;20338;-65
2021/12/12 01:19:01;;;;;;;53.03;22.10;;;;;;;;;;5008073;28;20055;-65
2021/12/12 01:21:36;;;;;;;68.40;23.77;;;;;;;;;;4990044;28;20321;-66
2021/12/12 01:24:11;;;;;;;58.38;23.65;;;;;;;;;;4990251;28;20462;-66
2021/12/12 01:26:38;;;;;;;66.50;25.67;;;;;;;;;;4989599;28;20458;-66
2021/12/12 01:29:04;;;;;;;61.42;23.45;;;;;;;;;;4990573;28;20028;-65
2021/12/12 01:31:33;;;;;;;57.00;22.15;;;;;;;;;;5009356;28;20403;-65
2021/12/12 01:34:12;;;;;;;59.58;23.30;;;;;;;;;;4989799;28;20398;-66
2021/12/12 01:37:05;;;;;;;50.47;23.50;;;;;;;;;;4989691;28;20360;-66
2021/12/12 01:39:39;;;;;;;62.63;25.38;;;;;;;;;;5007828;28;20500;-65
2021/12/12 01:42:09;;;;;;;52.13;22.52;;;;;;;;;;5008323;28;20367;-65
2021/12/12 01:44:42;;;;;;;54.40;21.55;;;;;;;;;;4990164;28;20463;-65
2021/12/12 01:47:19;;;;;;;59.15;22.95;;;;;;;;;;4989534;28;20366;-67
2021/12/12 01:49:47;;;;;;;54.72;21.92;;;;;;;;;;5007418;28;20352;-65
2021/12/12 01:52:15;;;;;;;60.65;21.33;;;;;;;;;;5009340;28;20047;-65
2021/12/12 01:54:45;;;;;;;61.75;24.27;;;;;;;;;;5011678;28;20510;-65
2021/12/12 01:57:43;;;;;;;55.28;20.50;;;;;;;;;;5012083;28;20416;-65
2021/12/12 02:00:17;;;;;;;56.72;21.23;;;;;;;;;;4961209;28;20149;-65
2021/12/12 02:02:42;;;;;;;52.78;21.90;;;;;;;;;;4992051;28;20370;-65
2021/12/12 02:05:12;;;;;;;60.60;21.60;;;;;;;;;;4991780;28;20382;-65
2021/12/12 02:07:43;;;;;;;54.38;22.85;;;;;;;;;;4991454;28;20096;-66
2021/12/12 02:10:16;;;;;;;53.75;20.70;;;;;;;;;;4993414;28;20347;-65
2021/12/12 02:12:42;;;;;;;58.00;22.92;;;;;;;;;;4973818;28;20402;-65
2021/12/12 02:15:10;;;;;;;48.75;21.67;;;;;;;;;;4973530;28;20435;-66
2021/12/12 02:17:41;;;;;;;61.28;23.27;;;;;;;;;;4992261;28;20420;-65
2021/12/12 02:20:27;;;;;;;47.25;21.90;;;;;;;;;;4991760;28;20029;-65
2021/12/12 02:36:27;;;;;;;47.35;20.05;;;;;;;;;;4975628;28;20364;-65
2021/12/12 02:38:53;;;;;;;52.75;23.02;;;;;;;;;;4992197;28;20144;-65
2021/12/12 02:41:20;;;;;;;48.45;20.88;;;;;;;;;;4972963;28;20025;-66
2021/12/12 02:43:54;;;;;;;54.92;21.02;;;;;;;;;;4957008;28;20346;-65
2021/12/12 02:46:27;;;;;;;59.33;21.98;;;;;;;;;;4991232;28;20420;-65
2021/12/12 02:48:58;;;;;;;51.80;21.08;;;;;;;;;;4991868;28;20356;-65
2021/12/12 02:51:24;;;;;;;50.40;20.75;;;;;;;;;;4990935;28;20506;-65
2021/12/12 02:53:54;;;;;;;58.92;21.42;;;;;;;;;;4990747;28;20439;-66
2021/12/12 02:56:28;;;;;;;52.70;22.52;;;;;;;;;;4991131;28;20451;-66
2021/12/12 02:58:53;;;;;;;52.03;20.90;;;;;;;;;;4990994;28;20459;-65
2021/12/12 03:01:24;;;;;;;52.63;21.83;;;;;;;;;;5010229;28;20490;-65
2021/12/12 03:03:50;;;;;;;59.00;22.55;;;;;;;;;;5009887;28;20511;-65
2021/12/12 03:06:21;;;;;;;53.80;21.90;;;;;;;;;;4992419;28;20437;-65
2021/12/12 03:08:49;;;;;;;49.63;20.50;;;;;;;;;;5011724;28;20514;-65
2021/12/12 03:11:14;;;;;;;39.05;19.88;;;;;;;;;;5012185;28;20115;-65
2021/12/12 03:13:40;;;;;;;47.80;21.38;;;;;;;;;;5011280;28;20423;-65
2021/12/12 03:16:07;;;;;;;48.47;21.08;;;;;;;;;;4992442;28;20339;-72
2021/12/12 03:18:39;;;;;;;50.35;20.17;;;;;;;;;;5010537;28;20388;-65
2021/12/12 03:21:15;;;;;;;51.75;21.17;;;;;;;;;;5009966;28;20501;-65
2021/12/12 03:23:43;;;;;;;54.38;22.02;;;;;;;;;;4992788;28;20501;-65
2021/12/12 03:26:10;;;;;;;51.58;21.25;;;;;;;;;;5011235;28;20448;-65
2021/12/12 03:28:38;;;;;;;47.60;21.17;;;;;;;;;;5009930;28;20020;-65
2021/12/12 03:31:09;;;;;;;41.72;20.10;;;;;;;;;;5009924;28;20339;-65
2021/12/12 03:33:35;;;;;;;50.40;21.42;;;;;;;;;;5010344;28;20422;-66
2021/12/12 03:36:04;;;;;;;42.67;20.88;;;;;;;;;;4991904;28;20421;-65
2021/12/12 03:38:31;;;;;;;54.03;21.38;;;;;;;;;;5010743;28;20359;-67
2021/12/12 03:41:01;;;;;;;51.08;21.58;;;;;;;;;;5009836;28;20025;-65
2021/12/12 03:43:26;;;;;;;46.25;19.40;;;;;;;;;;4991812;28;20083;-65
2021/12/12 03:45:52;;;;;;;47.65;20.85;;;;;;;;;;5010721;28;20107;-65
2021/12/12 03:48:25;;;;;;;56.50;19.33;;;;;;;;;;5009784;28;20447;-66
2021/12/12 03:50:53;;;;;;;54.10;21.05;;;;;;;;;;5010345;28;20021;-65
2021/12/12 03:53:18;;;;;;;42.78;18.55;;;;;;;;;;4992102;28;20328;-65
2021/12/12 03:55:45;;;;;;;51.90;21.02;;;;;;;;;;5009633;28;20405;-65
2021/12/12 03:58:11;;;;;;;49.85;22.70;;;;;;;;;;5009342;28;20150;-65
2021/12/12 04:00:43;;;;;;;52.70;21.60;;;;;;;;;;5009297;28;20052;-66
2021/12/12 04:03:09;;;;;;;47.45;20.08;;;;;;;;;;5009461;28;20324;-65
2021/12/12 04:05:35;;;;;;;48.15;19.20;;;;;;;;;;4991295;28;20387;-65
2021/12/12 04:08:01;;;;;;;47.25;19.85;;;;;;;;;;4991231;28;20091;-66
2021/12/12 04:10:27;;;;;;;51.13;20.60;;;;;;;;;;4991291;28;20394;-65
2021/12/12 04:12:53;;;;;;;48.38;20.98;;;;;;;;;;4991104;28;20347;-65
2021/12/12 04:15:19;;;;;;;47.58;19.10;;;;;;;;;;4990825;28;20458;-65
2021/12/12 04:17:45;;;;;;;45.17;20.08;;;;;;;;;;5009078;28;20102;-65
2021/12/12 04:20:19;;;;;;;57.42;21.13;;;;;;;;;;5009240;28;20332;-65
2021/12/12 04:22:44;;;;;;;52.55;20.58;;;;;;;;;;5009148;28;20425;-65
2021/12/12 04:25:10;;;;;;;47.78;21.27;;;;;;;;;;4990856;28;20425;-66
2021/12/12 04:27:36;;;;;;;41.63;19.75;;;;;;;;;;5008950;28;20439;-65
2021/12/12 04:30:05;;;;;;;48.40;21.20;;;;;;;;;;5009242;28;20321;-65
2021/12/12 04:32:31;;;;;;;51.35;19.77;;;;;;;;;;5009899;28;20490;-65
2021/12/12 04:34:59;;;;;;;51.65;22.10;;;;;;;;;;5011188;28;20467;-65
2021/12/12 04:37:25;;;;;;;47.27;19.90;;;;;;;;;;5009467;28;20312;-65
2021/12/12 04:39:55;;;;;;;44.58;20.30;;;;;;;;;;4990657;28;20374;-66
2021/12/12 04:42:28;;;;;;;44.55;20.90;;;;;;;;;;4990921;28;20449;-65
2021/12/12 04:45:06;;;;;;;44.08;18.92;;;;;;;;;;4990666;28;20340;-65
2021/12/12 04:50:36;;;;;;;45.55;18.02;;;;;;;;;;4993688;28;20505;-65
2021/12/12 04:53:08;;;;;;;45.35;19.25;;;;;;;;;;4990686;28;20028;-65
2021/12/12 04:55:58;;;;;;;40.85;18.60;;;;;;;;;;4991874;28;20408;-65
2021/12/12 04:59:01;;;;;;;47.85;19.77;;;;;;;;;;5008912;28;20416;-65
2021/12/12 05:02:04;;;;;;;42.25;19.60;;;;;;;;;;5008492;28;20067;-65
2021/12/12 05:05:06;;;;;;;46.70;18.80;;;;;;;;;;4975150;28;20497;-67
2021/12/12 05:08:09;;;;;;;45.35;18.55;;;;;;;;;;5007989;28;20051;-65
2021/12/12 05:10:42;;;;;;;44.80;19.98;;;;;;;;;;4985006;28;20044;-65
2021/12/12 05:13:16;;;;;;;48.33;19.15;;;;;;;;;;5008537;28;20328;-66
2021/12/12 05:15:44;;;;;;;45.28;21.02;;;;;;;;;;4991085;28;20025;-66
2021/12/12 05:18:16;;;;;;;48.85;20.48;;;;;;;;;;4990152;28;20443;-66
2021/12/12 05:20:45;;;;;;;45.03;19.83;;;;;;;;;;5008669;28;20432;-65
2021/12/12 05:23:16;;;;;;;41.28;18.65;;;;;;;;;;4973989;28;20528;-66
2021/12/12 05:25:50;;;;;;;37.00;18.70;;;;;;;;;;5008594;28;20415;-65
2021/12/12 05:28:20;;;;;;;47.47;21.48;;;;;;;;;;4989608;28;20452;-65
2021/12/12 05:30:46;;;;;;;41.80;19.58;;;;;;;;;;4990691;28;20431;-65
2021/12/12 05:33:14;;;;;;;49.35;19.67;;;;;;;;;;4989893;28;20500;-66
2021/12/12 05:35:40;;;;;;;54.03;20.38;;;;;;;;;;4990541;28;20028;-65
2021/12/12 05:38:06;;;;;;;38.35;19.02;;;;;;;;;;5008612;28;20512;-65
2021/12/12 05:40:33;;;;;;;41.60;19.17;;;;;;;;;;5008189;28;20351;-65
2021/12/12 05:43:00;;;;;;;46.10;19.15;;;;;;;;;;5007630;28;20443;-67
2021/12/12 05:45:27;;;;;;;42.60;18.67;;;;;;;;;;5008612;28;20419;-65
2021/12/12 05:47:52;;;;;;;44.15;19.13;;;;;;;;;;5008327;28;20281;-65
2021/12/12 05:50:18;;;;;;;47.05;19.65;;;;;;;;;;4990342;28;20051;-65
2021/12/12 05:52:45;;;;;;;41.17;18.38;;;;;;;;;;4989964;28;20389;-66
2021/12/12 05:55:13;;;;;;;44.08;19.02;;;;;;;;;;5008538;28;20382;-65
2021/12/12 05:57:39;;;;;;;41.35;17.15;;;;;;;;;;5007822;28;20043;-65
2021/12/12 06:00:11;;;;;;;48.40;20.92;;;;;;;;;;4980875;28;20375;-65
2021/12/12 06:02:37;;;;;;;45.00;19.23;;;;;;;;;;4987563;28;20071;-66
2021/12/12 06:05:03;;;;;;;46.85;20.52;;;;;;;;;;4988612;28;20424;-65
2021/12/12 06:07:29;;;;;;;50.40;18.85;;;;;;;;;;4969754;28;20443;-65
2021/12/12 06:09:54;;;;;;;43.00;19.00;;;;;;;;;;4970454;28;20440;-65
2021/12/12 06:12:20;;;;;;;46.80;19.63;;;;;;;;;;4970275;28;20463;-65
2021/12/12 06:14:47;;;;;;;40.55;17.92;;;;;;;;;;4969686;28;20387;-66
2021/12/12 06:17:15;;;;;;;42.88;18.17;;;;;;;;;;4970320;28;20498;-65
2021/12/12 06:19:41;;;;;;;35.88;17.50;;;;;;;;;;4970976;28;20402;-66
2021/12/12 06:22:08;;;;;;;45.10;19.33;;;;;;;;;;4987975;28;20383;-66
2021/12/12 06:24:34;;;;;;;40.58;19.10;;;;;;;;;;4987870;28;20433;-65
2021/12/12 06:27:06;;;;;;;43.30;18.35;;;;;;;;;;4969669;28;20420;-65
2021/12/12 06:29:32;;;;;;;51.92;19.15;;;;;;;;;;4988479;28;20273;-65
2021/12/12 06:31:57;;;;;;;42.38;18.77;;;;;;;;;;4989382;28;20336;-68
2021/12/12 06:34:23;;;;;;;48.78;19.02;;;;;;;;;;4988300;28;20376;-65
2021/12/12 06:36:50;;;;;;;46.00;20.15;;;;;;;;;;4988040;28;20340;-65
2021/12/12 06:39:16;;;;;;;52.40;19.65;;;;;;;;;;4989138;28;20451;-67
2021/12/12 06:41:42;;;;;;;49.35;20.20;;;;;;;;;;4991961;28;20436;-65
2021/12/12 06:44:09;;;;;;;36.10;17.88;;;;;;;;;;4974248;28;20383;-66
2021/12/12 06:46:36;;;;;;;52.05;20.60;;;;;;;;;;4974242;28;20313;-66
2021/12/12 06:49:03;;;;;;;49.08;19.17;;;;;;;;;;4991470;28;20367;-65
2021/12/12 06:51:29;;;;;;;47.40;19.75;;;;;;;;;;4991549;28;20348;-65
2021/12/12 06:53:55;;;;;;;44.47;18.52;;;;;;;;;;4973675;28;20037;-65
2021/12/12 06:56:21;;;;;;;45.72;18.40;;;;;;;;;;4973650;28;20404;-65
2021/12/12 06:58:49;;;;;;;48.22;18.95;;;;;;;;;;4973693;28;20541;-65
2021/12/12 07:01:18;;;;;;;42.58;17.05;;;;;;;;;;5011024;28;20564;-65
2021/12/12 07:03:45;;;;;;;42.15;19.08;;;;;;;;;;5011443;28;20024;-65
2021/12/12 07:06:10;;;;;;;41.85;19.83;;;;;;;;;;4992929;28;20538;-65
2021/12/12 07:08:36;;;;;;;42.33;17.75;;;;;;;;;;4993079;28;20527;-65
2021/12/12 07:11:03;;;;;;;48.83;19.17;;;;;;;;;;5010717;28;20382;-65
2021/12/12 07:13:29;;;;;;;49.95;20.38;;;;;;;;;;5010435;28;20451;-65
2021/12/12 07:15:56;;;;;;;40.60;19.20;;;;;;;;;;5010736;28;20466;-65
2021/12/12 07:18:24;;;;;;;38.42;18.63;;;;;;;;;;5010350;28;20047;-65
2021/12/12 07:20:52;;;;;;;40.55;17.30;;;;;;;;;;5011400;28;20390;-65
2021/12/12 07:23:17;;;;;;;37.58;17.75;;;;;;;;;;5011211;28;20056;-65
2021/12/12 07:25:44;;;;;;;52.63;17.73;;;;;;;;;;4992610;28;20507;-65
2021/12/12 07:28:09;;;;;;;42.67;19.08;;;;;;;;;;5010407;28;20399;-65
2021/12/12 07:30:35;;;;;;;48.08;19.00;;;;;;;;;;4992310;28;20381;-65
2021/12/12 07:33:05;;;;;;;39.78;19.17;;;;;;;;;;5011779;28;20443;-67
2021/12/12 07:35:33;;;;;;;41.05;18.70;;;;;;;;;;5011880;28;20051;-65
2021/12/12 07:37:58;;;;;;;40.45;17.80;;;;;;;;;;4992334;28;20426;-65
2021/12/12 07:40:24;;;;;;;41.20;18.50;;;;;;;;;;5010514;28;20143;-65
2021/12/12 07:42:50;;;;;;;42.95;17.80;;;;;;;;;;4992806;28;20443;-65
2021/12/12 07:45:20;;;;;;;53.60;21.48;;;;;;;;;;4992893;28;20615;-65
2021/12/12 07:47:46;;;;;;;50.05;22.25;;;;;;;;;;5009738;28;20047;-65
2021/12/12 07:50:13;;;;;;;52.20;22.45;;;;;;;;;;5009956;28;20029;-65
2021/12/12 07:52:39;;;;;;;55.40;21.08;;;;;;;;;;5010226;28;20459;-65
2021/12/12 07:55:05;;;;;;;55.40;23.40;;;;;;;;;;4992581;28;20093;-68
2021/12/12 07:57:31;;;;;;;52.72;22.45;;;;;;;;;;5010827;28;20017;-65
2021/12/12 07:59:59;;;;;;;59.63;26.20;;;;;;;;;;4984177;28;20065;-65
2021/12/12 08:02:25;;;;;;;54.58;23.88;;;;;;;;;;4972414;28;20025;-65
2021/12/12 08:04:51;;;;;;;60.15;26.98;;;;;;;;;;4990903;28;20432;-65
2021/12/12 08:07:19;;;;;;;48.75;22.00;;;;;;;;;;4972235;28;20037;-65
2021/12/12 08:09:45;;;;;;;49.88;22.42;;;;;;;;;;4990571;28;20053;-65
2021/12/12 08:12:13;;;;;;;55.30;23.23;;;;;;;;;;4989706;28;20562;-65
2021/12/12 08:14:40;;;;;;;52.95;24.17;;;;;;;;;;4972301;28;20336;-65
2021/12/12 08:17:06;;;;;;;52.40;22.48;;;;;;;;;;4990588;28;20447;-65
2021/12/12 08:19:32;;;;;;;59.92;23.98;;;;;;;;;;4989865;28;20435;-65
2021/12/12 08:22:00;;;;;;;47.85;24.10;;;;;;;;;;4989887;28;20548;-65
2021/12/12 08:24:26;;;;;;;53.42;23.70;;;;;;;;;;4971860;28;20328;-65
2021/12/12 08:26:52;;;;;;;54.55;24.83;;;;;;;;;;4990016;28;20056;-65
2021/12/12 08:29:19;;;;;;;57.25;24.95;;;;;;;;;;4971767;28;20386;-65
2021/12/12 08:31:46;;;;;;;61.55;27.65;;;;;;;;;;4989449;28;20068;-65
2021/12/12 08:34:12;;;;;;;47.83;24.85;;;;;;;;;;4972069;28;20043;-65
2021/12/12 08:36:40;;;;;;;59.38;26.25;;;;;;;;;;4971399;28;20466;-65
2021/12/12 08:39:07;;;;;;;62.58;26.83;;;;;;;;;;4972115;28;20021;-66
2021/12/12 08:41:33;;;;;;;53.55;24.52;;;;;;;;;;4988987;28;20351;-65
2021/12/12 08:43:58;;;;;;;61.53;25.60;;;;;;;;;;4989958;28;20025;-65
2021/12/12 08:46:24;;;;;;;54.70;24.65;;;;;;;;;;4971153;28;20036;-65
2021/12/12 08:48:51;;;;;;;50.50;23.48;;;;;;;;;;4972317;28;20354;-65
2021/12/12 08:51:22;;;;;;;50.75;23.15;;;;;;;;;;4955367;28;20471;-66
2021/12/12 08:53:50;;;;;;;59.38;24.00;;;;;;;;;;4989791;28;20356;-65
2021/12/12 08:56:29;;;;;;;57.28;24.42;;;;;;;;;;4971453;28;20096;-66
2021/12/12 09:02:18;;;;;;;49.63;23.33;;;;;;;;;;4999857;28;20405;-66
2021/12/12 09:04:48;;;;;;;51.70;24.65;;;;;;;;;;4975710;28;20052;-66
2021/12/12 09:07:20;;;;;;;57.60;23.33;;;;;;;;;;4971367;28;20068;-65
2021/12/12 09:09:50;;;;;;;52.47;23.58;;;;;;;;;;4990113;28;20341;-66
2021/12/12 09:12:20;;;;;;;46.45;22.15;;;;;;;;;;4971235;28;20355;-65
2021/12/12 09:14:49;;;;;;;52.03;24.23;;;;;;;;;;4972073;28;20431;-65
2021/12/12 09:17:33;;;;;;;52.08;21.45;;;;;;;;;;4972194;28;20465;-66
2021/12/12 09:20:14;;;;;;;43.65;20.95;;;;;;;;;;4989830;28;20476;-65
2021/12/12 09:23:01;;;;;;;46.72;20.77;;;;;;;;;;4972036;28;20364;-66
2021/12/12 09:25:35;;;;;;;46.53;21.10;;;;;;;;;;4958435;28;20431;-65
2021/12/12 09:28:09;;;;;;;46.58;21.42;;;;;;;;;;4987485;28;20399;-65
2021/12/12 09:30:37;;;;;;;40.03;20.40;;;;;;;;;;4988853;28;20474;-65
2021/12/12 09:33:18;;;;;;;42.78;20.05;;;;;;;;;;4990114;28;20448;-65
2021/12/12 09:35:50;;;;;;;51.58;21.58;;;;;;;;;;4989126;28;20319;-65
2021/12/12 09:38:28;;;;;;;43.90;21.27;;;;;;;;;;4970787;28;20474;-65
2021/12/12 09:40:54;;;;;;;40.50;19.90;;;;;;;;;;4988752;28;20348;-65
2021/12/12 09:43:49;;;;;;;44.30;21.30;;;;;;;;;;4989402;28;20337;-69
2021/12/12 09:46:41;;;;;;;37.50;19.45;;;;;;;;;;4989277;28;20044;-65
2021/12/12 09:52:27;;;;;;;44.83;20.05;;;;;;;;;;4989148;28;20121;-65
2021/12/12 09:55:07;;;;;;;40.63;19.83;;;;;;;;;;4955473;28;20065;-65
2021/12/12 09:58:01;;;;;;;39.45;17.95;;;;;;;;;;4988604;28;20444;-65
2021/12/12 10:00:32;;;;;;;42.45;19.55;;;;;;;;;;4975135;28;20569;-65
2021/12/12 10:03:30;;;;;;;45.28;20.83;;;;;;;;;;4988244;28;20052;-65
2021/12/12 10:06:16;;;;;;;42.42;19.08;;;;;;;;;;4934350;28;20370;-65
2021/12/12 10:09:04;;;;;;;42.42;17.60;;;;;;;;;;4971271;28;20029;-65
2021/12/12 10:11:34;;;;;;;43.80;20.40;;;;;;;;;;4970209;28;20469;-65
2021/12/12 10:14:08;;;;;;;38.85;17.75;;;;;;;;;;4970607;28;20103;-65
2021/12/12 10:17:04;;;;;;;41.67;18.85;;;;;;;;;;4974997;28;20055;-65
2021/12/12 10:19:38;;;;;;;37.03;18.55;;;;;;;;;;4992179;28;20493;-65
2021/12/12 10:22:09;;;;;;;38.97;18.75;;;;;;;;;;4958164;28;20032;-65
2021/12/12 10:24:39;;;;;;;43.15;18.10;;;;;;;;;;4992223;28;20348;-65
2021/12/12 10:27:13;;;;;;;40.70;19.40;;;;;;;;;;4992054;28;20356;-65
2021/12/12 10:29:56;;;;;;;38.42;18.45;;;;;;;;;;4991912;28;20332;-65
2021/12/12 10:32:32;;;;;;;38.63;18.38;;;;;;;;;;4974315;28;20343;-65
2021/12/12 10:35:08;;;;;;;37.50;16.38;;;;;;;;;;4991764;28;20424;-65
2021/12/12 10:37:57;;;;;;;36.42;15.40;;;;;;;;;;4974881;28;20538;-65
2021/12/12 10:40:45;;;;;;;;;;;;;;;;;;4958281;28;20320;-67
2021/12/12 10:43:12;;;;;;;33.60;16.45;;;;;;;;;;4991728;28;20321;-65
2021/12/12 10:45:46;;;;;;;32.88;16.38;;;;;;;;;;4991861;28;20439;-66
2021/12/12 10:48:16;;;;;;;35.55;15.68;;;;;;;;;;4973790;28;20458;-65
2021/12/12 10:51:10;;;;;;;38.55;17.85;;;;;;;;;;4974164;28;20083;-65
2021/12/12 10:53:37;;;;;;;40.63;17.15;;;;;;;;;;4991397;28;20052;-65
2021/12/12 10:56:22;;;;;;;39.70;17.52;;;;;;;;;;4974790;28;20025;-66
2021/12/12 10:58:58;;;;;;;37.63;16.42;;;;;;;;;;4973805;28;20401;-65
2021/12/12 11:01:33;;;;;;;31.88;16.05;;;;;;;;;;4974343;28;20487;-65
2021/12/12 11:04:18;;;;;;;30.17;16.08;;;;;;;;;;4977873;28;20336;-65
2021/12/12 11:06:53;;;;;;;34.95;16.55;;;;;;;;;;5010893;28;20453;-65
2021/12/12 11:09:29;;;;;;;32.17;15.63;;;;;;;;;;4993232;28;20436;-65
2021/12/12 11:12:16;;;;;;;31.60;14.50;;;;;;;;;;5010843;28;20418;-66
2021/12/12 11:14:47;;;;;;;32.58;16.58;;;;;;;;;;5011215;28;20486;-65
2021/12/12 11:17:17;;;;;;;33.38;17.33;;;;;;;;;;4992989;28;20060;-65
2021/12/12 11:19:50;;;;;;;31.42;15.95;;;;;;;;;;4993299;28;20466;-65
2021/12/12 11:22:24;;;;;;;36.75;16.40;;;;;;;;;;5010652;28;20402;-65
2021/12/12 11:24:58;;;;;;;38.92;15.88;;;;;;;;;;5010495;28;20416;-65
2021/12/12 11:27:33;;;;;;;33.83;15.93;;;;;;;;;;4993959;28;20383;-66
2021/12/12 11:30:05;;;;;;;37.30;16.05;;;;;;;;;;4993154;28;20443;-65
2021/12/12 11:32:35;;;;;;;33.80;15.77;;;;;;;;;;4976149;28;20098;-67
2021/12/12 11:35:02;;;;;;;31.00;16.15;;;;;;;;;;5010986;28;20017;-65
2021/12/12 11:37:41;;;;;;;36.30;16.83;;;;;;;;;;5010538;28;20465;-65
2021/12/12 11:40:19;;;;;;;33.95;14.25;;;;;;;;;;4992726;28;20021;-68
2021/12/12 11:43:28;;;;;;;27.88;15.02;;;;;;;;;;5010180;28;20373;-65
2021/12/12 11:46:00;;;;;;;33.67;15.43;;;;;;;;;;5011101;28;20541;-65
2021/12/12 11:48:47;;;;;;;33.08;16.55;;;;;;;;;;4992955;28;20467;-66
2021/12/12 11:51:15;;;;;;;31.30;15.60;;;;;;;;;;5010016;28;20447;-65
2021/12/12 11:53:56;;;;;;;39.08;17.13;;;;;;;;;;5011591;28;20025;-65
2021/12/12 11:56:31;;;;;;;36.25;15.73;;;;;;;;;;4992321;28;20355;-65
2021/12/12 11:59:08;;;;;;;36.80;17.35;;;;;;;;;;5011062;28;20431;-65
2021/12/12 12:01:51;;;;;;;34.53;16.73;;;;;;;;;;5010346;28;20458;-65
2021/12/12 12:04:31;;;;;;;33.97;16.35;;;;;;;;;;5009969;28;20450;-65
2021/12/12 12:07:16;;;;;;;32.97;15.35;;;;;;;;;;4975510;28;20377;-65
2021/12/12 12:09:50;;;;;;;31.75;15.70;;;;;;;;;;5010574;28;20427;-65
2021/12/12 12:12:49;;;;;;;30.92;14.93;;;;;;;;;;4992102;28;20064;-65
2021/12/12 12:15:42;;;;;;;31.65;15.45;;;;;;;;;;5010099;28;20328;-65
2021/12/12 12:18:22;;;;;;;29.05;14.40;;;;;;;;;;5009591;28;20387;-65
2021/12/12 12:20:57;;;;;;;29.40;15.15;;;;;;;;;;4992942;28;20416;-65
2021/12/12 12:23:47;;;;;;;38.33;15.23;;;;;;;;;;4991712;28;20327;-65
2021/12/12 12:29:26;;;;;;;35.97;16.30;;;;;;;;;;4995774;28;20390;-66
2021/12/12 12:32:03;;;;;;;39.53;16.80;;;;;;;;;;5010012;28;20486;-65
2021/12/12 12:35:19;;;;;;;34.65;16.25;;;;;;;;;;5009568;28;20369;-66
2021/12/12 12:38:05;;;;;;;31.10;16.10;;;;;;;;;;5008515;28;20101;-65
2021/12/12 12:40:52;;;;;;;34.22;17.55;;;;;;;;;;5010046;28;20419;-65
2021/12/12 12:43:55;;;;;;;41.30;17.30;;;;;;;;;;5009499;28;20454;-65
2021/12/12 12:46:54;;;;;;;34.97;16.25;;;;;;;;;;4991092;28;20402;-65
2021/12/12 12:49:58;;;;;;;42.40;17.95;;;;;;;;;;5009945;28;20473;-66
2021/12/12 12:53:01;;;;;;;40.17;16.38;;;;;;;;;;5009095;28;20052;-65
2021/12/12 12:55:34;;;;;;;29.90;15.32;;;;;;;;;;5009168;28;20482;-65
2021/12/12 12:58:18;;;;;;;34.67;17.33;;;;;;;;;;4991464;28;20099;-65
2021/12/12 13:00:44;;;;;;;37.33;16.23;;;;;;;;;;4991228;28;20347;-65
2021/12/12 13:03:40;;;;;;;33.30;14.73;;;;;;;;;;4975033;28;20447;-65
2021/12/12 13:06:44;;;;;;;36.33;16.35;;;;;;;;;;4987920;28;20389;-65
2021/12/12 13:09:34;;;;;;;35.38;15.90;;;;;;;;;;4990586;28;20064;-65
2021/12/12 13:12:29;;;;;;;32.53;15.00;;;;;;;;;;4940972;28;20041;-66
2021/12/12 13:15:06;;;;;;;32.63;15.80;;;;;;;;;;4989307;28;20489;-65
2021/12/12 13:17:43;;;;;;;37.60;16.27;;;;;;;;;;4971154;28;20332;-66
2021/12/12 13:20:26;;;;;;;34.15;16.05;;;;;;;;;;4987857;28;20325;-65
2021/12/12 13:23:07;;;;;;;33.30;17.02;;;;;;;;;;4987760;28;20490;-65
2021/12/12 13:25:57;;;;;;;38.05;16.95;;;;;;;;;;4988300;28;20498;-65
2021/12/12 13:28:28;;;;;;;42.67;18.25;;;;;;;;;;4981335;28;20502;-65
2021/12/12 13:31:02;;;;;;;42.58;18.17;;;;;;;;;;4987695;28;20372;-65
2021/12/12 13:33:47;;;;;;;40.72;18.10;;;;;;;;;;4990166;28;20493;-65
2021/12/12 13:36:30;;;;;;;43.97;17.73;;;;;;;;;;4987772;28;20351;-65
2021/12/12 13:39:10;;;;;;;41.40;18.23;;;;;;;;;;4987271;28;20412;-66
2021/12/12 13:41:41;;;;;;;42.17;17.85;;;;;;;;;;4987414;28;20471;-67
2021/12/12 13:44:41;;;;;;;44.85;19.33;;;;;;;;;;4987460;28;20436;-66
2021/12/12 13:47:31;;;;;;;45.50;19.25;;;;;;;;;;4968750;28;20048;-69
2021/12/12 13:50:07;;;;;;;49.22;19.08;;;;;;;;;;4992790;28;20372;-65
2021/12/12 13:52:36;;;;;;;48.58;20.63;;;;;;;;;;4991680;28;20344;-65
2021/12/12 13:55:54;;;;;;;46.87;19.87;;;;;;;;;;4993274;28;20339;-66
2021/12/12 13:58:26;;;;;;;42.38;18.63;;;;;;;;;;4967560;28;20333;-65
2021/12/12 14:01:00;;;;;;;51.42;20.10;;;;;;;;;;4991278;28;20364;-65
2021/12/12 14:03:40;;;;;;;50.33;20.10;;;;;;;;;;4992639;28;20025;-70
2021/12/12 14:06:10;;;;;;;47.70;20.95;;;;;;;;;;4994592;28;20506;-65
2021/12/12 14:08:40;;;;;;;42.95;19.95;;;;;;;;;;5012701;28;20481;-66
2021/12/12 14:11:08;;;;;;;49.28;19.63;;;;;;;;;;4994637;28;20385;-66
2021/12/12 14:13:37;;;;;;;43.05;20.23;;;;;;;;;;4994712;28;20363;-65
2021/12/12 14:16:11;;;;;;;52.00;20.23;;;;;;;;;;5013490;28;20037;-65
2021/12/12 14:18:43;;;;;;;52.25;21.00;;;;;;;;;;5012226;28;20076;-65
2021/12/12 14:21:10;;;;;;;49.35;21.38;;;;;;;;;;4994664;28;20431;-65
2021/12/12 14:23:37;;;;;;;53.35;20.95;;;;;;;;;;4993860;28;20523;-65
2021/12/12 14:26:09;;;;;;;49.47;21.98;;;;;;;;;;4994129;28;20489;-65
2021/12/12 14:28:37;;;;;;;55.90;21.02;;;;;;;;;;4993915;28;20470;-66
2021/12/12 14:31:06;;;;;;;46.17;20.83;;;;;;;;;;4994189;28;20434;-65
2021/12/12 14:33:35;;;;;;;50.33;21.15;;;;;;;;;;4994089;28;20316;-66
2021/12/12 14:36:11;;;;;;;53.30;22.73;;;;;;;;;;5011981;28;20494;-65
2021/12/12 14:38:37;;;;;;;54.30;22.85;;;;;;;;;;4994450;28;20335;-65
2021/12/12 14:41:04;;;;;;;54.88;21.45;;;;;;;;;;5012939;28;20055;-65
2021/12/12 14:43:43;;;;;;;62.25;23.92;;;;;;;;;;5011376;28;20371;-67
2021/12/12 14:46:14;;;;;;;57.13;23.65;;;;;;;;;;4994124;28;20455;-65
2021/12/12 14:48:56;;;;;;;60.83;25.42;;;;;;;;;;5012132;28;20024;-66
2021/12/12 14:51:29;;;;;;;60.22;24.80;;;;;;;;;;4993950;28;20296;-65
2021/12/12 14:54:02;;;;;;;56.35;23.52;;;;;;;;;;5012154;28;20367;-65
2021/12/12 14:56:32;;;;;;;60.67;22.77;;;;;;;;;;4994087;28;20055;-65
2021/12/12 14:59:00;;;;;;;53.70;23.80;;;;;;;;;;4993570;28;20075;-65
2021/12/12 15:01:32;;;;;;;52.13;22.15;;;;;;;;;;4992623;28;20025;-65
2021/12/12 15:04:01;;;;;;;52.58;22.52;;;;;;;;;;5011395;28;20471;-65
2021/12/12 15:06:30;;;;;;;55.13;23.13;;;;;;;;;;4977001;28;20398;-65
2021/12/12 15:09:02;;;;;;;63.03;23.67;;;;;;;;;;4994096;28;20438;-65
2021/12/12 15:11:33;;;;;;;61.40;25.08;;;;;;;;;;4992737;28;20463;-66
2021/12/12 15:14:00;;;;;;;56.55;25.55;;;;;;;;;;4993426;28;20366;-65
2021/12/12 15:16:32;;;;;;;67.72;27.35;;;;;;;;;;5010981;28;20033;-65
2021/12/12 15:18:59;;;;;;;64.97;25.35;;;;;;;;;;4993332;28;20423;-66